createdAt,value
2023-04-05T00:00:39.745Z,7.42
2023-04-05T00:03:10.087Z,7.40
2023-04-05T00:05:37.879Z,7.35
2023-04-05T00:08:08.190Z,7.33
2023-04-05T00:10:35.875Z,7.30
2023-04-05T00:13:04.964Z,7.23
2023-04-05T00:15:32.920Z,7.22
2023-04-05T00:18:03.818Z,7.15
2023-04-05T00:20:31.743Z,7.12
2023-04-05T00:22:59.482Z,7.07
2023-04-05T00:25:27.332Z,7.11
2023-04-05T00:27:55.063Z,7.07
2023-04-05T00:30:24.189Z,7.03
2023-04-05T00:32:52.058Z,6.99
2023-04-05T00:35:20.304Z,6.97
2023-04-05T00:37:48.026Z,6.94
2023-04-05T00:40:15.827Z,6.91
2023-04-05T00:42:43.497Z,6.87
2023-04-05T00:45:11.525Z,6.83
2023-04-05T00:47:42.016Z,6.78
2023-04-05T00:50:11.276Z,6.76
2023-04-05T00:52:39.289Z,6.72
2023-04-05T00:55:08.394Z,6.70
2023-04-05T00:57:39.163Z,6.67
2023-04-05T01:00:09.500Z,6.63
2023-04-05T01:02:46.926Z,6.58
2023-04-05T01:05:23.177Z,6.55
2023-04-05T01:07:53.686Z,6.52
2023-04-05T01:10:23.367Z,6.49
2023-04-05T01:12:51.504Z,6.47
2023-04-05T01:15:19.407Z,6.43
2023-04-05T01:17:49.160Z,6.34
2023-04-05T01:20:16.933Z,6.35
2023-04-05T01:23:25.044Z,6.34
2023-04-05T01:26:32.949Z,6.31
2023-04-05T01:29:30.337Z,6.27
2023-04-05T01:32:02.518Z,6.23
2023-04-05T01:34:37.095Z,6.19
2023-04-05T01:37:08.908Z,6.17
2023-04-05T01:39:37.151Z,6.15
2023-04-05T01:42:05.206Z,6.12
2023-04-05T01:44:32.972Z,6.06
2023-04-05T01:47:02.076Z,6.04
2023-04-05T01:49:29.722Z,6.02
2023-04-05T01:51:57.429Z,5.99
2023-04-05T01:54:25.134Z,5.96
2023-04-05T01:56:52.820Z,5.95
2023-04-05T01:59:20.697Z,5.93
2023-04-05T02:01:48.458Z,5.91
2023-04-05T02:04:17.529Z,5.88
2023-04-05T02:06:45.282Z,5.87
2023-04-05T02:09:13.161Z,5.84
2023-04-05T02:11:40.810Z,5.79
2023-04-05T02:14:09.541Z,5.76
2023-04-05T02:16:37.367Z,5.72
2023-04-05T02:19:05.960Z,5.68
2023-04-05T02:21:36.740Z,5.66
2023-04-05T02:24:04.673Z,5.62
2023-04-05T02:26:32.337Z,5.61
2023-04-05T02:29:00.007Z,5.57
2023-04-05T02:31:27.768Z,5.54
2023-04-05T02:33:56.090Z,5.51
2023-04-05T02:36:24.251Z,5.48
2023-04-05T02:38:53.284Z,5.48
2023-04-05T02:41:22.731Z,5.46
2023-04-05T02:43:50.608Z,5.41
2023-04-05T02:46:18.384Z,5.38
2023-04-05T02:48:46.801Z,5.37
2023-04-05T02:51:14.417Z,5.35
2023-04-05T02:53:42.456Z,5.34
2023-04-05T02:56:13.623Z,5.31
2023-04-05T02:58:41.699Z,5.30
2023-04-05T03:01:09.391Z,5.29
2023-04-05T03:03:37.576Z,5.27
2023-04-05T03:06:10.219Z,5.28
2023-04-05T03:08:38.801Z,5.26
2023-04-05T03:11:06.673Z,5.24
2023-04-05T03:13:36.029Z,5.22
2023-04-05T03:16:03.690Z,5.20
2023-04-05T03:18:31.469Z,5.19
2023-04-05T03:20:59.779Z,5.15
2023-04-05T03:23:29.671Z,5.09
2023-04-05T03:26:00.013Z,5.09
2023-04-05T03:28:27.862Z,5.06
2023-04-05T03:30:57.142Z,5.02
2023-04-05T03:33:25.150Z,4.98
2023-04-05T03:35:52.827Z,4.96
2023-04-05T03:38:20.614Z,4.95
2023-04-05T03:40:48.274Z,4.93
2023-04-05T03:43:16.840Z,4.91
2023-04-05T03:45:44.588Z,4.86
2023-04-05T03:48:13.770Z,4.86
2023-04-05T03:50:41.391Z,4.83
2023-04-05T03:53:09.388Z,4.83
2023-04-05T03:55:37.057Z,4.86
2023-04-05T03:58:04.736Z,4.85
2023-04-05T04:00:32.627Z,4.84
2023-04-05T04:03:00.375Z,4.82
2023-04-05T04:05:29.494Z,4.80
2023-04-05T04:07:57.124Z,4.79
2023-04-05T04:10:24.861Z,4.78
2023-04-05T04:12:52.440Z,4.77
2023-04-05T04:15:20.542Z,4.77
2023-04-05T04:17:48.221Z,4.74
2023-04-05T04:20:15.894Z,4.70
2023-04-05T04:22:45.862Z,4.70
2023-04-05T04:25:14.667Z,4.66
2023-04-05T04:27:43.523Z,4.64
2023-04-05T04:30:13.189Z,4.60
2023-04-05T04:32:58.191Z,4.61
2023-04-05T04:35:29.016Z,4.58
2023-04-05T04:37:59.234Z,4.58
2023-04-05T04:40:29.420Z,4.52
2023-04-05T04:42:58.730Z,4.55
2023-04-05T04:45:26.579Z,4.53
2023-04-05T04:47:54.793Z,4.54
2023-04-05T04:50:22.699Z,4.53
2023-04-05T04:52:50.441Z,4.50
2023-04-05T04:55:25.265Z,4.51
2023-04-05T04:57:53.623Z,4.49
2023-04-05T05:00:23.000Z,4.47
2023-04-05T05:02:52.292Z,4.45
2023-04-05T05:05:22.789Z,4.44
2023-04-05T05:07:52.605Z,4.38
2023-04-05T05:10:22.561Z,4.43
2023-04-05T05:12:51.705Z,4.42
2023-04-05T05:15:20.263Z,4.42
2023-04-05T05:17:53.897Z,4.43
2023-04-05T05:20:22.380Z,4.39
2023-04-05T05:22:50.081Z,4.38
2023-04-05T05:25:18.397Z,4.37
2023-04-05T05:27:49.635Z,4.37
2023-04-05T05:30:17.423Z,4.37
2023-04-05T05:32:45.265Z,4.38
2023-04-05T05:35:13.060Z,4.40
2023-04-05T05:37:41.251Z,4.38
2023-04-05T05:40:09.943Z,4.39
2023-04-05T05:42:37.554Z,4.41
2023-04-05T05:45:07.498Z,4.43
2023-04-05T05:47:35.589Z,4.43
2023-04-05T05:50:03.874Z,4.46
2023-04-05T05:52:31.567Z,4.46
2023-04-05T05:54:59.253Z,4.46
2023-04-05T05:57:27.348Z,4.49
2023-04-05T05:59:55.062Z,4.52
2023-04-05T06:02:24.255Z,4.55
2023-04-05T06:04:51.998Z,4.57
2023-04-05T06:07:19.748Z,4.59
2023-04-05T06:09:47.639Z,4.61
2023-04-05T06:12:15.344Z,4.65
2023-04-05T06:14:43.117Z,4.67
2023-04-05T06:17:10.929Z,4.73
2023-04-05T06:19:40.166Z,4.76
2023-04-05T06:22:07.851Z,4.77
2023-04-05T06:24:35.654Z,4.84
2023-04-05T06:27:03.335Z,4.89
2023-04-05T06:29:31.242Z,4.94
2023-04-05T06:31:59.024Z,4.98
2023-04-05T06:34:26.682Z,5.01
2023-04-05T06:36:56.276Z,5.08
2023-04-05T06:39:23.903Z,5.12
2023-04-05T06:41:51.608Z,5.18
2023-04-05T06:44:19.382Z,5.21
2023-04-05T06:46:47.249Z,5.27
2023-04-05T06:49:15.139Z,5.34
2023-04-05T06:51:42.826Z,5.35
2023-04-05T06:54:12.006Z,5.44
2023-04-05T06:56:40.080Z,5.52
2023-04-05T06:59:07.798Z,5.57
2023-04-05T07:01:35.893Z,5.64
2023-04-05T07:04:03.711Z,5.70
2023-04-05T07:06:33.861Z,5.77
2023-04-05T07:09:01.583Z,5.85
2023-04-05T07:11:32.696Z,5.92
2023-04-05T07:14:00.830Z,5.98
2023-04-05T07:16:28.690Z,6.08
2023-04-05T07:18:57.238Z,6.13
2023-04-05T07:21:24.952Z,6.22
2023-04-05T07:23:55.905Z,6.31
2023-04-05T07:26:23.577Z,6.39
2023-04-05T07:28:53.407Z,6.47
2023-04-05T07:31:21.139Z,6.54
2023-04-05T07:33:48.821Z,6.62
2023-04-05T07:36:16.789Z,6.72
2023-04-05T07:38:44.830Z,6.77
2023-04-05T07:41:12.580Z,6.81
2023-04-05T07:43:40.257Z,6.88
2023-04-05T07:46:09.377Z,7.00
2023-04-05T07:48:37.099Z,7.03
2023-04-05T07:51:07.062Z,7.14
2023-04-05T07:53:34.924Z,7.21
2023-04-05T07:56:04.951Z,7.33
2023-04-05T07:58:32.747Z,7.40
2023-04-05T08:01:01.714Z,7.47
2023-04-05T08:03:31.910Z,7.55
2023-04-05T08:05:59.893Z,7.59
2023-04-05T08:08:27.655Z,7.68
2023-04-05T08:10:55.614Z,7.76
2023-04-05T08:13:23.402Z,7.86
2023-04-05T08:15:51.116Z,7.94
2023-04-05T08:18:19.278Z,8.01
2023-04-05T08:20:52.293Z,8.08
2023-04-05T08:23:19.960Z,8.16
2023-04-05T08:25:47.660Z,8.23
2023-04-05T08:28:15.423Z,8.34
2023-04-05T08:30:43.431Z,8.39
2023-04-05T08:33:11.571Z,8.47
2023-04-05T08:35:39.920Z,8.60
2023-04-05T08:38:09.216Z,8.71
2023-04-05T08:40:42.648Z,8.84
2023-04-05T08:43:12.496Z,8.96
2023-04-05T08:45:45.942Z,8.98
2023-04-05T08:48:13.660Z,9.01
2023-04-05T08:50:41.669Z,9.12
2023-04-05T08:53:11.325Z,9.15
2023-04-05T08:55:39.273Z,9.20
2023-04-05T08:58:11.583Z,9.26
2023-04-05T09:00:39.727Z,9.29
2023-04-05T09:03:08.249Z,9.32
2023-04-05T09:05:38.088Z,9.40
2023-04-05T09:08:06.717Z,9.44
2023-04-05T09:10:35.776Z,9.53
2023-04-05T09:13:03.988Z,9.60
2023-04-05T09:15:31.814Z,9.62
2023-04-05T09:17:59.480Z,9.65
2023-04-05T09:20:27.164Z,9.68
2023-04-05T09:22:57.426Z,9.71
2023-04-05T09:25:38.714Z,9.77
2023-04-05T09:28:07.098Z,9.79
2023-04-05T09:30:37.012Z,9.85
2023-04-05T09:33:05.937Z,9.92
2023-04-05T09:35:34.006Z,10.01
2023-04-05T09:38:02.957Z,10.08
2023-04-05T09:40:45.526Z,10.13
2023-04-05T09:43:13.958Z,10.21
2023-04-05T09:45:42.673Z,10.30
2023-04-05T09:48:10.930Z,10.32
2023-04-05T09:50:39.070Z,10.30
2023-04-05T09:53:15.743Z,10.34
2023-04-05T09:55:45.283Z,10.37
2023-04-05T09:58:13.587Z,10.43
2023-04-05T10:00:55.700Z,10.45
2023-04-05T10:03:28.465Z,10.46
2023-04-05T10:05:57.053Z,10.55
2023-04-05T10:08:25.663Z,10.54
2023-04-05T10:10:56.245Z,10.51
2023-04-05T10:13:23.990Z,10.46
2023-04-05T10:15:52.431Z,10.38
2023-04-05T10:18:23.252Z,10.40
2023-04-05T10:20:51.956Z,10.47
2023-04-05T10:23:24.140Z,10.53
2023-04-05T10:26:01.825Z,10.47
2023-04-05T10:28:32.740Z,10.40
2023-04-05T10:31:04.136Z,10.45
2023-04-05T10:33:38.894Z,10.55
2023-04-05T10:36:16.460Z,10.66
2023-04-05T10:39:04.210Z,10.79
2023-04-05T10:41:36.335Z,10.88
2023-04-05T10:44:12.067Z,10.97
2023-04-05T10:46:51.867Z,11.03
2023-04-05T10:49:23.746Z,11.02
2023-04-05T10:51:51.911Z,11.07
2023-04-05T10:54:21.028Z,11.21
2023-04-05T10:56:50.128Z,11.28
2023-04-05T10:59:18.320Z,11.34
2023-04-05T11:01:47.359Z,11.29
2023-04-05T11:04:16.621Z,11.40
2023-04-05T11:06:48.059Z,11.60
2023-04-05T11:09:17.670Z,11.73
2023-04-05T11:11:46.665Z,11.86
2023-04-05T11:14:23.592Z,11.84
2023-04-05T11:16:54.296Z,11.73
2023-04-05T11:19:22.267Z,11.70
2023-04-05T11:22:02.155Z,11.73
2023-04-05T11:24:53.816Z,11.83
2023-04-05T11:27:26.789Z,11.89
2023-04-05T11:29:56.611Z,11.97
2023-04-05T11:32:24.633Z,12.08
2023-04-05T11:35:00.721Z,12.11
2023-04-05T11:38:33.190Z,12.31
2023-04-05T11:41:08.360Z,12.40
2023-04-05T11:43:38.319Z,12.61
2023-04-05T11:46:06.334Z,12.66
2023-04-05T11:48:34.826Z,12.63
2023-04-05T11:51:07.993Z,12.54
2023-04-05T11:53:37.276Z,12.47
2023-04-05T11:56:09.773Z,12.62
2023-04-05T11:58:38.133Z,12.79
2023-04-05T12:01:07.539Z,12.75
2023-04-05T12:03:35.727Z,12.65
2023-04-05T12:06:04.350Z,12.65
2023-04-05T12:08:41.885Z,12.72
2023-04-05T12:11:10.862Z,12.68
2023-04-05T12:13:39.588Z,12.74
2023-04-05T12:16:09.338Z,12.78
2023-04-05T12:18:38.053Z,12.65
2023-04-05T12:21:08.037Z,12.60
2023-04-05T12:23:37.333Z,12.57
2023-04-05T12:26:08.730Z,12.56
2023-04-05T12:28:53.474Z,12.80
2023-04-05T12:31:36.376Z,12.99
2023-04-05T12:34:04.161Z,13.10
2023-04-05T12:36:32.672Z,13.17
2023-04-05T12:39:00.607Z,13.19
2023-04-05T12:41:30.793Z,13.29
2023-04-05T12:44:01.843Z,13.41
2023-04-05T12:46:40.593Z,13.55
2023-04-05T12:49:08.312Z,13.53
2023-04-05T12:51:36.289Z,13.52
2023-04-05T12:54:04.400Z,13.48
2023-04-05T12:56:33.570Z,13.34
2023-04-05T12:59:01.253Z,13.28
2023-04-05T13:01:31.253Z,13.28
2023-04-05T13:04:14.700Z,13.22
2023-04-05T13:06:43.525Z,13.14
2023-04-05T13:09:11.180Z,13.12
2023-04-05T13:11:40.351Z,13.24
2023-04-05T13:14:08.480Z,13.26
2023-04-05T13:16:36.250Z,13.37
2023-04-05T13:19:03.940Z,13.46
2023-04-05T13:21:32.518Z,13.52
2023-04-05T13:24:00.274Z,13.61
2023-04-05T13:26:27.952Z,13.64
2023-04-05T13:28:57.008Z,13.64
2023-04-05T13:31:24.733Z,13.50
2023-04-05T13:33:52.905Z,13.40
2023-04-05T13:36:20.565Z,13.52
2023-04-05T13:38:48.215Z,13.63
2023-04-05T13:41:16.206Z,13.71
2023-04-05T13:43:43.913Z,13.73
2023-04-05T13:46:13.050Z,13.76
2023-04-05T13:48:40.714Z,13.81
2023-04-05T13:51:08.577Z,13.95
2023-04-05T13:53:36.473Z,14.06
2023-04-05T13:56:04.270Z,14.16
2023-04-05T13:58:31.989Z,14.25
2023-04-05T14:00:59.774Z,14.34
2023-04-05T14:03:29.026Z,14.35
2023-04-05T14:05:56.945Z,14.23
2023-04-05T14:08:24.706Z,14.32
2023-04-05T14:10:52.585Z,14.33
2023-04-05T14:13:20.334Z,14.25
2023-04-05T14:15:48.100Z,14.15
2023-04-05T14:18:15.762Z,14.01
2023-04-05T14:20:44.886Z,13.97
2023-04-05T14:23:12.623Z,13.90
2023-04-05T14:25:40.604Z,13.87
2023-04-05T14:28:08.632Z,13.86
2023-04-05T14:30:36.656Z,13.87
2023-04-05T14:33:04.439Z,13.98
2023-04-05T14:35:32.163Z,14.03
2023-04-05T14:38:01.202Z,13.94
2023-04-05T14:40:29.010Z,13.83
2023-04-05T14:42:56.700Z,13.79
2023-04-05T14:45:27.141Z,13.86
2023-04-05T14:47:55.097Z,13.88
2023-04-05T14:50:23.246Z,13.90
2023-04-05T14:52:50.995Z,13.98
2023-04-05T14:55:20.314Z,14.00
2023-04-05T14:57:48.022Z,14.00
2023-04-05T15:00:16.521Z,14.02
2023-04-05T15:02:45.216Z,13.99
2023-04-05T15:05:13.403Z,14.00
2023-04-05T15:07:41.143Z,14.02
2023-04-05T15:10:09.446Z,14.02
2023-04-05T15:12:38.546Z,14.05
2023-04-05T15:15:07.232Z,14.08
2023-04-05T15:17:34.965Z,14.10
2023-04-05T15:20:02.718Z,14.09
2023-04-05T15:22:30.815Z,14.10
2023-04-05T15:24:59.741Z,14.09
2023-04-05T15:27:27.480Z,14.07
2023-04-05T15:29:56.638Z,14.07
2023-04-05T15:32:24.368Z,14.10
2023-04-05T15:34:52.107Z,14.11
2023-04-05T15:37:19.800Z,14.13
2023-04-05T15:39:47.520Z,14.07
2023-04-05T15:42:15.618Z,13.97
2023-04-05T15:44:43.998Z,13.85
2023-04-05T15:47:13.100Z,13.88
2023-04-05T15:49:40.721Z,13.84
2023-04-05T15:52:08.897Z,13.84
2023-04-05T15:54:36.719Z,13.78
2023-04-05T15:57:04.387Z,13.76
2023-04-05T15:59:32.177Z,13.73
2023-04-05T16:01:59.956Z,13.76
2023-04-05T16:04:29.154Z,13.73
2023-04-05T16:06:56.867Z,13.69
2023-04-05T16:09:24.610Z,13.63
2023-04-05T16:11:52.270Z,13.53
2023-04-05T16:14:19.934Z,13.53
2023-04-05T16:16:53.741Z,13.47
2023-04-05T16:19:23.033Z,13.32
2023-04-05T16:21:52.765Z,13.27
2023-04-05T16:24:21.204Z,13.24
2023-04-05T16:26:49.002Z,13.22
2023-04-05T16:29:16.678Z,13.17
2023-04-05T16:31:47.264Z,13.14
2023-04-05T16:34:15.557Z,13.12
2023-04-05T16:36:43.480Z,13.09
2023-04-05T16:39:12.507Z,13.05
2023-04-05T16:41:40.221Z,12.98
2023-04-05T16:44:08.012Z,12.96
2023-04-05T16:46:35.632Z,12.98
2023-04-05T16:49:03.575Z,12.94
2023-04-05T16:51:31.577Z,12.89
2023-04-05T16:53:59.387Z,12.84
2023-04-05T16:56:28.525Z,12.88
2023-04-05T16:58:57.460Z,12.91
2023-04-05T17:01:25.877Z,12.94
2023-04-05T17:03:53.661Z,12.90
2023-04-05T17:06:21.477Z,12.92
2023-04-05T17:08:49.160Z,12.92
2023-04-05T17:11:17.076Z,12.92
2023-04-05T17:13:46.965Z,12.92
2023-04-05T17:16:15.132Z,12.89
2023-04-05T17:18:43.192Z,12.93
2023-04-05T17:21:12.303Z,12.95
2023-04-05T17:23:39.993Z,12.92
2023-04-05T17:26:07.724Z,12.91
2023-04-05T17:28:35.824Z,12.87
2023-04-05T17:31:05.193Z,12.82
2023-04-05T17:33:33.138Z,12.77
2023-04-05T17:36:01.751Z,12.72
2023-04-05T17:38:29.570Z,12.66
2023-04-05T17:40:59.281Z,12.58
2023-04-05T17:43:27.023Z,12.53
2023-04-05T17:45:55.456Z,12.45
2023-04-05T17:48:24.577Z,12.40
2023-04-05T17:50:52.362Z,12.37
2023-04-05T17:53:20.494Z,12.36
2023-04-05T17:55:48.241Z,12.32
2023-04-05T17:58:15.964Z,12.28
2023-04-05T18:00:43.733Z,12.25
2023-04-05T18:03:13.200Z,12.23
2023-04-05T18:05:42.928Z,12.20
2023-04-05T18:08:10.753Z,12.15
2023-04-05T18:10:38.420Z,12.12
2023-04-05T18:13:06.487Z,12.09
2023-04-05T18:15:34.192Z,12.05
2023-04-05T18:18:02.182Z,12.01
2023-04-05T18:20:29.833Z,11.95
2023-04-05T18:22:59.491Z,11.87
2023-04-05T18:25:27.702Z,11.85
2023-04-05T18:27:55.814Z,11.82
2023-04-05T18:30:23.550Z,11.77
2023-04-05T18:32:51.982Z,11.71
2023-04-05T18:35:19.813Z,11.65
2023-04-05T18:37:47.532Z,11.55
2023-04-05T18:40:16.720Z,11.51
2023-04-05T18:42:45.309Z,11.47
2023-04-05T18:45:13.405Z,11.40
2023-04-05T18:47:41.173Z,11.35
2023-04-05T18:50:10.580Z,11.29
2023-04-05T18:52:38.643Z,11.27
2023-04-05T18:55:07.006Z,11.22
2023-04-05T18:57:36.591Z,11.18
2023-04-05T19:00:05.817Z,11.12
2023-04-05T19:02:33.557Z,11.05
2023-04-05T19:05:01.240Z,10.99
2023-04-05T19:07:28.905Z,10.93
2023-04-05T19:09:56.713Z,10.89
2023-04-05T19:12:24.400Z,10.83
2023-04-05T19:14:53.574Z,10.79
2023-04-05T19:17:21.277Z,10.78
2023-04-05T19:19:49.296Z,10.75
2023-04-05T19:22:17.012Z,10.72
2023-04-05T19:24:44.698Z,10.68
2023-04-05T19:27:12.440Z,10.62
2023-04-05T19:29:40.152Z,10.60
2023-04-05T19:32:09.210Z,10.52
2023-04-05T19:34:38.120Z,10.46
2023-04-05T19:37:06.027Z,10.40
2023-04-05T19:39:34.769Z,10.35
2023-04-05T19:42:02.466Z,10.31
2023-04-05T19:44:38.496Z,10.25
2023-04-05T19:47:10.822Z,10.21
2023-04-05T19:49:40.334Z,10.15
2023-04-05T19:52:08.781Z,10.11
2023-04-05T19:54:37.226Z,10.07
2023-04-05T19:57:07.179Z,10.03
2023-04-05T19:59:35.791Z,9.99
2023-04-05T20:02:04.206Z,9.98
2023-04-05T20:04:38.856Z,9.95
2023-04-05T20:07:09.626Z,9.92
2023-04-05T20:09:38.593Z,9.88
2023-04-05T20:12:06.695Z,9.82
2023-04-05T20:14:42.040Z,9.75
2023-04-05T20:17:11.208Z,9.74
2023-04-05T20:19:41.785Z,9.70
2023-04-05T20:22:10.318Z,9.67
2023-04-05T20:24:38.203Z,9.60
2023-04-05T20:27:05.978Z,9.62
2023-04-05T20:29:35.969Z,9.60
2023-04-05T20:32:04.138Z,9.58
2023-04-05T20:34:33.102Z,9.52
2023-04-05T20:37:03.168Z,9.46
2023-04-05T20:39:31.425Z,9.41
2023-04-05T20:41:59.226Z,9.36
2023-04-05T20:44:27.290Z,9.31
2023-04-05T20:46:57.190Z,9.28
2023-04-05T20:49:25.391Z,9.23
2023-04-05T20:51:54.791Z,9.17
2023-04-05T20:54:24.114Z,9.16
2023-04-05T20:56:51.695Z,9.09
2023-04-05T20:59:19.567Z,9.02
2023-04-05T21:01:47.795Z,9.01
2023-04-05T21:04:15.718Z,8.94
2023-04-05T21:06:43.402Z,8.95
2023-04-05T21:09:11.293Z,8.90
2023-04-05T21:11:40.635Z,8.91
2023-04-05T21:14:08.297Z,8.85
2023-04-05T21:16:36.213Z,8.86
2023-04-05T21:19:03.851Z,8.83
2023-04-05T21:21:31.482Z,8.83
2023-04-05T21:23:59.148Z,8.79
2023-04-05T21:26:26.815Z,8.72
2023-04-05T21:28:55.863Z,8.73
2023-04-05T21:31:23.591Z,8.69
2023-04-05T21:33:51.313Z,8.64
2023-04-05T21:36:18.951Z,8.61
2023-04-05T21:38:46.612Z,8.58
2023-04-05T21:41:14.375Z,8.56
2023-04-05T21:43:42.022Z,8.52
2023-04-05T21:46:11.838Z,8.51
2023-04-05T21:48:39.547Z,8.49
2023-04-05T21:51:07.267Z,8.48
2023-04-05T21:53:35.014Z,8.48
2023-04-05T21:56:02.662Z,8.45
2023-04-05T21:58:30.525Z,8.42
2023-04-05T22:00:59.573Z,8.39
2023-04-05T22:03:28.813Z,8.38
2023-04-05T22:05:56.601Z,8.37
2023-04-05T22:08:24.876Z,8.31
2023-04-05T22:10:52.740Z,8.28
2023-04-05T22:13:20.604Z,8.27
2023-04-05T22:15:48.207Z,8.26
2023-04-05T22:18:15.951Z,8.23
2023-04-05T22:20:45.031Z,8.20
2023-04-05T22:23:12.742Z,8.18
2023-04-05T22:25:40.358Z,8.16
2023-04-05T22:28:08.013Z,8.13
2023-04-05T22:30:43.640Z,8.11
2023-04-05T22:33:12.898Z,8.08
2023-04-05T22:35:40.974Z,8.04
2023-04-05T22:38:10.265Z,8.01
2023-04-05T22:40:38.042Z,8.00
2023-04-05T22:43:05.753Z,7.99
2023-04-05T22:45:33.447Z,7.97
2023-04-05T22:48:01.322Z,7.95
2023-04-05T22:50:28.982Z,7.92
2023-04-05T22:52:56.760Z,7.88
2023-04-05T22:55:26.003Z,7.85
2023-04-05T22:57:53.623Z,7.76
2023-04-05T23:00:21.566Z,7.73
2023-04-05T23:02:49.324Z,7.71
2023-04-05T23:05:17.180Z,7.67
2023-04-05T23:07:44.880Z,7.65
2023-04-05T23:10:12.642Z,7.62
2023-04-05T23:12:41.740Z,7.54
2023-04-05T23:15:10.213Z,7.51
2023-04-05T23:17:37.988Z,7.49
2023-04-05T23:20:06.784Z,7.47
2023-04-05T23:22:35.940Z,7.40
2023-04-05T23:25:04.372Z,7.38
2023-04-05T23:27:32.019Z,7.34
2023-04-05T23:30:01.214Z,7.30
2023-04-05T23:32:28.957Z,7.25
2023-04-05T23:34:56.693Z,7.23
2023-04-05T23:37:24.380Z,7.19
2023-04-05T23:39:52.048Z,7.14
2023-04-05T23:42:19.706Z,7.12
2023-04-05T23:44:47.418Z,7.09
2023-04-05T23:47:16.752Z,7.09
2023-04-05T23:49:44.425Z,7.03
2023-04-05T23:52:12.089Z,7.00
2023-04-05T23:54:39.808Z,6.99
2023-04-05T23:57:07.507Z,6.94
2023-04-05T23:59:35.168Z,6.94
